Flight Track Log - Related Links

Times and Time Zones

All times are in EDT time to prevent confusion due to time zone crossing. See the CES5192 flight status page for this flight to view local times or setup timezone preferences in your user account.

Time Position Orientation Groundspeed Altitude Reporting Facility
EDT Latitude Longitude Course Direction KTS MPH feet Rate Location/Type
Thu 03:54:00 AM 32.7958 117.8020 111° Southeast  Level Estimated
Thu 03:55:00 AM 32.7491 117.9213 115° Southeast  Level Estimated
Thu 03:56:00 AM 32.7022 118.0404 115° Southeast  Level Estimated
Thu 03:57:00 AM 32.6553 118.1594 115° Southeast  Level Estimated
Thu 03:58:00 AM 32.6082 118.2783 115° Southeast  Level Estimated
Thu 03:59:00 AM 32.5610 118.3970 115° Southeast  Level Estimated
Thu 04:00:00 AM 32.5137 118.5156 115° Southeast  Level Estimated
Thu 04:01:00 AM 32.4663 118.6341 115° Southeast  Level Estimated
Thu 04:02:00 AM 32.4188 118.7525 115° Southeast  Level Estimated
Thu 04:03:00 AM 32.3711 118.8708 115° Southeast  Level Estimated
Thu 04:04:00 AM 32.3234 118.9889 116° Southeast  Level Estimated
Thu 04:05:00 AM 32.2755 119.1069 116° Southeast  Level Estimated
Thu 04:06:00 AM 32.2276 119.2248 116° Southeast  Level Estimated
Thu 04:07:00 AM 32.1795 119.3425 116° Southeast  Level Estimated
Thu 04:08:00 AM 32.1313 119.4601 116° Southeast  Level Estimated
Thu 04:09:00 AM 32.0830 119.5776 116° Southeast  Level Estimated
Thu 04:10:00 AM 32.0346 119.6950 116° Southeast  Level Estimated
Thu 04:11:00 AM 31.9861 119.8123 116° Southeast  Level Estimated
Thu 04:12:00 AM 31.9375 119.9294 116° Southeast  Level Estimated
Thu 04:13:00 AM 31.8888 120.0464 116° Southeast  Level Estimated
Thu 04:14:00 AM 31.8400 120.1633 116° Southeast  Level Estimated
Thu 04:15:00 AM 31.7910 120.2800 116° Southeast  Level Estimated
Thu 04:16:00 AM 31.7420 120.3967 116° Southeast  Level Estimated
Thu 04:17:00 AM 31.6928 120.5132 116° Southeast  Level Estimated
Thu 04:18:00 AM 31.6436 120.6296 116° Southeast  Level Estimated
Thu 04:19:00 AM 31.5942 120.7458 116° Southeast  Level Estimated
Thu 04:20:00 AM 31.5448 120.8620 117° Southeast  Level Estimated
Thu 04:21:00 AM 31.4952 120.9780 117° Southeast  Level Estimated
Thu 04:22:00 AM 31.4455 121.0939 117° Southeast  Level Estimated
Thu 04:22:27 AM 31.4981 120.6291 109° East 455 524 19,600  Level FlightAware ADS-B (ZSSS / SHA)
Thu 04:22:56 AM 31.4756 120.7040 109° East 450 518 19,000 -1,300 Descending FlightAware ADS-B (ZSSS / SHA)
Thu 04:23:27 AM 31.4547 120.7734 109° East 447 514 18,300 -1,433 Descending FlightAware ADS-B (ZSSS / SHA)
Thu 04:24:03 AM 31.4318 120.8494 110° East 439 505 17,400 -1,535 Descending FlightAware ADS-B
Thu 04:24:10 AM 31.4267 120.8661 109° East 438 504 17,200 -2,308 Descending FlightAware ADS-B (ZSSS / SHA)
Thu 04:24:42 AM 31.4033 120.9429 109° East 425 489 15,900 -2,333 Descending FlightAware ADS-B (ZSSS / SHA)
Thu 04:24:46 AM 31.4023 120.9462 110° East 426 490 15,800 -2,600 Descending FlightAware ADS-B
Thu 04:25:12 AM 31.3837 121.0071 109° East 420 483 14,600 -2,217 Descending FlightAware ADS-B (ZSSS / SHA)
Thu 04:25:32 AM 31.3727 121.0430 110° East 406 467 14,100 -1,400 Descending FlightAware ADS-B
Thu 04:25:42 AM 31.3655 121.0665 109° East 394 453 13,900 -1,800 Descending FlightAware ADS-B (ZSSS / SHA)
Thu 04:26:02 AM 31.3545 121.1026 110° East 385 443 13,200 -2,710 Descending FlightAware ADS-B
Thu 04:26:13 AM 31.3464 121.1290 109° East 388 447 12,500 -3,000 Descending FlightAware ADS-B (ZSSS / SHA)
Thu 04:26:32 AM 31.3370 121.1604 109° East 386 444 11,700 -1,862 Descending FlightAware ADS-B
Thu 04:26:42 AM 31.3306 121.1816 109° East 379 436 11,600 -800 Descending FlightAware ADS-B (ZSSS / SHA)
Thu 04:27:02 AM 31.3203 121.2157 109° East 358 412 11,300 -1,000 Descending FlightAware ADS-B
Thu 04:27:12 AM 31.3122 121.2425 109° East 347 399 11,100 -800 Descending FlightAware ADS-B (ZSSS / SHA)
Thu 04:27:32 AM 31.3032 121.2725 109° East 333 383 10,900 -600 Descending FlightAware ADS-B
Thu 04:27:42 AM 31.2972 121.2924 109° East 323 372 10,800 -800 Descending FlightAware ADS-B (ZSSS / SHA)
Thu 04:28:02 AM 31.2893 121.3195 105° East 313 360 10,500 -1,200 Descending FlightAware ADS-B
Thu 04:28:12 AM 31.2874 121.3344 105° East 314 361 10,200 -1,600 Descending FlightAware ADS-B (ZSSS / SHA)
Thu 04:28:17 AM 31.2878 121.3452 83° East 316 364 10,100 -2,000 Descending FlightAware ADS-B
Thu 04:28:18 AM 31.2885 121.3521 82° East 317 365 10,000 -2,000 Descending FlightAware ADS-B (ZSSS / SHA)
Thu 04:28:32 AM 31.2913 121.3698 78° East 319 367 9,600 -1,862 Descending FlightAware ADS-B
Thu 04:28:47 AM 31.2964 121.3928 73° East 317 365 9,100 -2,250 Descending FlightAware ADS-B
Thu 04:28:48 AM 31.2988 121.4019 72° East 316 364 9,000 -2,000 Descending FlightAware ADS-B (ZSSS / SHA)
Thu 04:29:02 AM 31.3036 121.4199 73° East 315 362 8,600 -2,276 Descending FlightAware ADS-B
Thu 04:29:17 AM 31.3114 121.4486 72° East 308 354 7,900 -2,690 Descending FlightAware ADS-B (ZSSS / SHA)
Thu 04:29:31 AM 31.3158 121.4648 73° East 307 353 7,300 -2,800 Descending FlightAware ADS-B
Thu 04:29:32 AM 31.3180 121.4732 72° East 307 353 7,200 -2,571 Descending FlightAware ADS-B (ZSSS / SHA)
Thu 04:29:52 AM 31.3263 121.5052 73° East 302 348 6,400 -2,750 Descending FlightAware ADS-B (ZSSS / SHA)
Thu 04:29:56 AM 31.3265 121.5059 74° East 299 344 6,100 -1,714 Descending FlightAware ADS-B
Thu 04:30:06 AM 31.3311 121.5241 73° East 298 343 6,000 -571 Descending FlightAware ADS-B (ZSSS / SHA)
Thu 04:30:17 AM 31.3352 121.5399 73° East 284 327 5,900 -692 Descending FlightAware ADS-B
Thu 04:30:32 AM 31.3401 121.5593 73° East 268 308 5,700 -800 Descending FlightAware ADS-B
Thu 04:30:47 AM 31.3461 121.5804 70° East 255 293 5,500 -815 Descending FlightAware ADS-B
Thu 04:31:53 AM 31.3762 121.6525 68° East 207 238 4,600 -763 Descending FlightAware ADS-B
Thu 04:32:45 AM 31.3558 121.7007 136° Southeast 190 219 4,000 -943 Descending FlightAware ADS-B (ZSSL)
Thu 04:33:03 AM 31.3424 121.7115 156° South 196 226 3,500 -1,273 Descending FlightAware ADS-B (ZSSL)
Thu 04:33:18 AM 31.3294 121.7170 161° South 192 221 3,300 -600 Descending FlightAware ADS-B (ZSSL)
Thu 04:33:33 AM 31.3171 121.7218 161° South 191 220 3,200 -621 Descending FlightAware ADS-B (ZSSL)
Thu 04:33:47 AM 31.3044 121.7267 161° South 196 226 3,000 -960 Descending FlightAware ADS-B (ZSSL)
Thu 04:33:58 AM 31.2995 121.7286 162° South 193 222 2,800 -800 Descending FlightAware ADS-B
Thu 04:34:02 AM 31.2922 121.7314 161° South 191 220 2,800 -667 Level FlightAware ADS-B (ZSSL)
Thu 04:34:16 AM 31.2800 121.7359 162° South 188 216 2,600 -1,029 Descending FlightAware ADS-B (ZSSL)
Thu 04:34:37 AM 31.2634 121.7422 162° South 181 208 2,200 -857 Descending FlightAware ADS-B (ZSSL)
Thu 04:34:58 AM 31.2476 121.7482 161° South 164 189 2,000 -750 Descending FlightAware ADS-B (ZSSL)
Thu 04:35:17 AM 31.2342 121.7533 161° South 160 184 1,700 -938 Descending FlightAware ADS-B (ZSSL)
Thu 04:35:30 AM 31.2267 121.7561 161° South 134 154 1,500 -600 Descending FlightAware ADS-B (ZSSL)
Thu 04:35:47 AM 31.2169 121.7599 161° South 132 152 1,400 -581 Descending FlightAware ADS-B (ZSSL)
Thu 04:36:01 AM 31.2088 121.7629 162° South 131 151 1,200 -732 Descending FlightAware ADS-B (ZSSL)
Thu 04:36:28 AM 31.1935 121.7686 162° South 129 148 900 -588 Descending FlightAware ADS-B (ZSSL)
Thu 04:36:52 AM 31.1805 121.7736 162° South 130 150 700 -600 Descending FlightAware ADS-B (ZSSL)
Thu 04:37:08 AM 31.1703 121.7774 161° South 129 148 500 -750 Descending FlightAware ADS-B (ZSSL)
Thu 04:39:00 AM 31.1428 121.7924 155° Southeast  Level Estimated
Thu 04:40:00 AM 31.1428 121.7924 North  Level Estimated
Thu 04:41:00 AM 31.1428 121.7924 North  Level Estimated
Thu 04:42:00 AM 31.1428 121.7924 North  Level Estimated
Thu 04:43:00 AM 31.1428 121.7924 North  Level Estimated
Thu 04:44:00 AM 31.1428 121.7924 North  Level Estimated

Login

Don't have an account? Register now (free) for customized features, flight alerts, and more!